Time;durP1;ratioP1;P1;durP2;ratioP2;P2;SDS_P1;SDS_P2;PMS_P1;PMS_P2;Temp;Humidity;BMP_temperature;BMP_pressure;BME280_temperature;BME280_humidity;BME280_pressure;Samples;Min_cycle;Max_cycle;Signal;HPM_P1;HPM_P2
2023/05/26 00:00:12;;;;;;;2.42;2.22;;;15.00;99.90;;;;;;5035316;28;20022;-76
2023/05/26 00:02:39;;;;;;;3.22;2.85;;;15.00;99.90;;;;;;5035089;28;20029;-75
2023/05/26 00:05:08;;;;;;;3.25;2.95;;;15.10;99.90;;;;;;5035429;28;20051;-76
2023/05/26 00:07:38;;;;;;;2.83;2.63;;;15.00;99.90;;;;;;5035781;28;20105;-77
2023/05/26 00:10:04;;;;;;;2.78;2.58;;;15.00;99.90;;;;;;5035171;28;20029;-76
2023/05/26 00:12:30;;;;;;;3.35;2.92;;;15.00;99.90;;;;;;5027776;28;20393;-76
2023/05/26 00:14:56;;;;;;;2.78;2.47;;;14.90;99.90;;;;;;5012549;28;20112;-76
2023/05/26 00:17:22;;;;;;;2.85;2.47;;;14.80;99.90;;;;;;5033140;28;20033;-76
2023/05/26 00:19:48;;;;;;;3.03;2.83;;;14.70;99.90;;;;;;5036751;28;20033;-77
2023/05/26 00:22:15;;;;;;;2.70;2.50;;;14.70;99.90;;;;;;5035870;28;20036;-77
2023/05/26 00:24:41;;;;;;;2.40;2.20;;;14.60;99.90;;;;;;5034973;28;20539;-75
2023/05/26 00:27:07;;;;;;;3.10;2.80;;;14.60;99.90;;;;;;5024083;28;20034;-76
2023/05/26 00:29:34;;;;;;;3.90;3.45;;;14.50;99.90;;;;;;4998599;28;20032;-76
2023/05/26 00:31:59;;;;;;;5.07;3.92;;;14.50;99.90;;;;;;5016919;28;20109;-76
2023/05/26 00:34:25;;;;;;;5.90;4.93;;;14.50;99.90;;;;;;5015968;28;20124;-75
2023/05/26 00:36:51;;;;;;;6.72;5.40;;;14.50;99.90;;;;;;5024151;28;20099;-75
2023/05/26 00:39:16;;;;;;;6.68;5.05;;;14.50;99.90;;;;;;5040635;28;20021;-76
2023/05/26 00:41:42;;;;;;;7.07;4.90;;;14.50;99.90;;;;;;5049812;28;20029;-74
2023/05/26 00:44:08;;;;;;;5.95;5.10;;;14.50;99.90;;;;;;5033811;28;20057;-75
2023/05/26 00:46:34;;;;;;;5.30;4.80;;;14.40;99.90;;;;;;5021021;28;20457;-76
2023/05/26 00:48:59;;;;;;;5.65;4.60;;;14.40;99.90;;;;;;5019519;28;20125;-75
2023/05/26 00:51:25;;;;;;;4.53;3.90;;;14.30;99.90;;;;;;5019563;28;20372;-76
2023/05/26 00:53:51;;;;;;;4.68;4.28;;;14.30;99.90;;;;;;5022080;28;20029;-77
2023/05/26 00:56:18;;;;;;;6.15;5.03;;;14.30;99.90;;;;;;5019574;28;20410;-76
2023/05/26 00:58:44;;;;;;;5.32;4.35;;;14.30;99.90;;;;;;5019260;28;20523;-75
2023/05/26 01:01:10;;;;;;;6.03;4.93;;;14.30;99.90;;;;;;5019891;28;20110;-76
2023/05/26 01:03:38;;;;;;;7.05;5.05;;;14.30;99.90;;;;;;5021479;28;20106;-76
2023/05/26 01:06:04;;;;;;;7.07;5.13;;;14.30;99.90;;;;;;5019017;28;20384;-76
2023/05/26 01:08:30;;;;;;;6.72;4.93;;;14.20;99.90;;;;;;5032748;28;20049;-76
2023/05/26 01:11:14;;;;;;;7.40;5.65;;;14.20;99.90;;;;;;5025384;28;20417;-75
2023/05/26 01:14:07;;;;;;;7.90;5.32;;;14.10;99.90;;;;;;5019232;28;20018;-75
2023/05/26 01:16:36;;;;;;;;;;;14.20;99.90;;;;;;4998536;28;20018;-75
2023/05/26 01:19:30;;;;;;;6.95;4.68;;;14.10;99.70;;;;;;5023677;28;20008;-76
2023/05/26 01:22:20;;;;;;;6.28;4.72;;;14.10;99.60;;;;;;5040352;28;20099;-78
2023/05/26 01:25:12;;;;;;;4.40;4.00;;;14.10;99.50;;;;;;5038205;28;20018;-75
2023/05/26 01:27:48;;;;;;;4.68;3.83;;;14.00;99.30;;;;;;5034958;28;20033;-76
2023/05/26 01:30:15;;;;;;;5.75;4.93;;;14.00;99.20;;;;;;5000139;28;20030;-76
2023/05/26 01:32:48;;;;;;;6.30;5.30;;;14.00;99.00;;;;;;4992405;28;20033;-76
2023/05/26 01:35:14;;;;;;;7.03;4.78;;;14.00;98.80;;;;;;4999165;28;20042;-74
2023/05/26 01:37:41;;;;;;;12.30;7.18;;;13.90;98.50;;;;;;4998973;28;20023;-75
2023/05/26 01:40:08;;;;;;;8.70;6.25;;;13.90;98.20;;;;;;5017477;28;20029;-75
2023/05/26 01:42:40;;;;;;;11.75;6.60;;;13.90;97.90;;;;;;5018632;28;20034;-76
2023/05/26 01:45:16;;;;;;;9.93;6.30;;;13.80;97.70;;;;;;5019444;28;20018;-75
2023/05/26 01:47:45;;;;;;;7.80;5.70;;;13.80;97.60;;;;;;5019414;28;20022;-76
2023/05/26 01:50:12;;;;;;;7.50;5.70;;;13.80;97.50;;;;;;5032059;28;20044;-75
2023/05/26 01:52:42;;;;;;;7.70;5.63;;;13.70;97.50;;;;;;5040865;28;20026;-75
2023/05/26 01:55:11;;;;;;;7.25;5.00;;;13.70;97.90;;;;;;5048951;28;20032;-75
2023/05/26 01:57:38;;;;;;;5.53;4.47;;;13.60;97.60;;;;;;5048881;28;20442;-75
2023/05/26 02:00:04;;;;;;;6.05;4.50;;;13.50;97.70;;;;;;5039895;28;20030;-76
2023/05/26 02:02:29;;;;;;;4.78;3.75;;;13.50;97.80;;;;;;5037652;28;20129;-76
2023/05/26 02:04:55;;;;;;;4.88;3.85;;;13.50;97.80;;;;;;5037320;28;20489;-76
2023/05/26 02:07:21;;;;;;;4.40;3.55;;;13.40;97.80;;;;;;5033733;28;20022;-76
2023/05/26 02:09:47;;;;;;;5.47;3.70;;;13.40;97.80;;;;;;5018729;28;20018;-75
2023/05/26 02:12:13;;;;;;;3.78;3.05;;;13.40;97.70;;;;;;5017531;28;20106;-75
2023/05/26 02:14:38;;;;;;;4.75;3.40;;;13.40;97.70;;;;;;5015738;28;20026;-75
2023/05/26 02:17:05;;;;;;;3.08;2.67;;;13.40;97.70;;;;;;5027149;28;20117;-75
2023/05/26 02:19:30;;;;;;;3.20;2.80;;;13.40;97.70;;;;;;5037719;28;20033;-75
2023/05/26 02:21:56;;;;;;;2.53;2.33;;;13.30;97.80;;;;;;5020024;28;20410;-76
2023/05/26 02:24:22;;;;;;;2.47;2.28;;;13.30;97.90;;;;;;5034773;28;20026;-74
2023/05/26 02:26:47;;;;;;;2.60;2.40;;;13.30;98.00;;;;;;5036312;28;20018;-75
2023/05/26 02:29:13;;;;;;;2.28;2.08;;;13.20;98.10;;;;;;5019367;28;20115;-75
2023/05/26 02:31:39;;;;;;;1.98;1.88;;;13.20;98.20;;;;;;5017830;28;20029;-75
2023/05/26 02:34:06;;;;;;;3.20;2.38;;;13.20;98.20;;;;;;5018017;28;20117;-75
2023/05/26 02:36:32;;;;;;;2.25;2.05;;;13.20;98.30;;;;;;5032441;28;20030;-75
2023/05/26 02:38:58;;;;;;;2.00;1.77;;;13.10;98.30;;;;;;5018468;28;20050;-75
2023/05/26 02:41:25;;;;;;;1.77;1.67;;;13.10;98.20;;;;;;5016711;28;20049;-75
2023/05/26 02:43:51;;;;;;;1.73;1.63;;;13.10;98.30;;;;;;5012379;28;20610;-75
2023/05/26 02:46:16;;;;;;;1.83;1.70;;;13.10;98.40;;;;;;5014343;28;20109;-76
2023/05/26 02:48:42;;;;;;;1.50;1.40;;;13.00;98.30;;;;;;5023971;28;20049;-76
2023/05/26 02:51:08;;;;;;;1.80;1.70;;;13.10;98.20;;;;;;5037181;28;20013;-75
2023/05/26 02:53:33;;;;;;;1.70;1.60;;;13.00;98.10;;;;;;5036777;28;20037;-75
2023/05/26 02:55:59;;;;;;;1.95;1.77;;;13.00;98.10;;;;;;5036706;28;20037;-75
2023/05/26 02:58:27;;;;;;;1.67;1.50;;;13.00;98.10;;;;;;5035587;28;20418;-75
2023/05/26 03:00:53;;;;;;;1.50;1.40;;;13.00;98.10;;;;;;5036204;28;20013;-75
2023/05/26 03:03:18;;;;;;;1.48;1.38;;;13.00;98.00;;;;;;5038006;28;20151;-76
2023/05/26 03:05:45;;;;;;;1.40;1.30;;;12.90;98.00;;;;;;5025076;28;20038;-75
2023/05/26 03:08:10;;;;;;;2.05;1.83;;;12.90;98.10;;;;;;5000169;28;20100;-75
2023/05/26 03:10:39;;;;;;;1.50;1.40;;;12.90;98.10;;;;;;5017279;28;20034;-76
2023/05/26 03:13:05;;;;;;;1.88;1.58;;;12.90;98.10;;;;;;5016732;28;20025;-76
2023/05/26 03:15:39;;;;;;;1.20;1.20;;;12.90;98.20;;;;;;5013334;28;20044;-75
2023/05/26 03:18:05;;;;;;;1.52;1.42;;;12.80;98.20;;;;;;5016689;28;20046;-77
2023/05/26 03:20:30;;;;;;;1.45;1.35;;;12.80;98.20;;;;;;5016717;28;20482;-76
2023/05/26 03:22:56;;;;;;;1.58;1.48;;;12.80;98.30;;;;;;5017788;28;20030;-76
2023/05/26 03:25:22;;;;;;;1.92;1.83;;;12.80;98.40;;;;;;5016288;28;20026;-77
2023/05/26 03:27:48;;;;;;;1.60;1.50;;;12.80;98.40;;;;;;5032943;28;20026;-76
2023/05/26 03:30:13;;;;;;;1.42;1.33;;;12.80;98.30;;;;;;5033043;28;20026;-76
2023/05/26 03:32:39;;;;;;;1.80;1.70;;;12.70;98.30;;;;;;5025932;28;20387;-77
2023/05/26 03:35:05;;;;;;;2.05;1.88;;;12.80;98.30;;;;;;5020197;28;20029;-75
2023/05/26 03:37:31;;;;;;;1.65;1.55;;;12.70;98.20;;;;;;5018849;28;20078;-76
2023/05/26 03:39:57;;;;;;;1.80;1.70;;;12.70;98.20;;;;;;5018421;28;20057;-75
2023/05/26 03:42:23;;;;;;;1.95;1.85;;;12.70;98.10;;;;;;5015875;28;20045;-75
2023/05/26 03:44:49;;;;;;;2.15;1.80;;;12.70;98.10;;;;;;4998986;28;20121;-75
2023/05/26 03:47:15;;;;;;;1.77;1.67;;;12.70;98.00;;;;;;5016537;28;20022;-75
2023/05/26 03:49:40;;;;;;;2.65;2.28;;;12.70;98.00;;;;;;4999541;28;20044;-76
2023/05/26 03:52:06;;;;;;;2.78;1.88;;;12.70;98.00;;;;;;5015423;28;20022;-74
2023/05/26 03:54:32;;;;;;;2.28;1.95;;;12.70;98.00;;;;;;5015501;28;20038;-75
2023/05/26 03:56:58;;;;;;;2.83;2.63;;;12.70;98.00;;;;;;5019809;28;20025;-75
2023/05/26 03:59:23;;;;;;;2.35;2.15;;;12.70;98.00;;;;;;5036416;28;20040;-75
2023/05/26 04:01:49;;;;;;;2.85;2.28;;;12.70;98.20;;;;;;5037927;28;20078;-76
2023/05/26 04:04:15;;;;;;;3.42;2.35;;;12.80;98.20;;;;;;5034223;28;20289;-76
2023/05/26 04:06:41;;;;;;;2.83;2.42;;;12.80;98.30;;;;;;5035045;28;20476;-75
2023/05/26 04:09:07;;;;;;;2.90;2.60;;;12.80;98.40;;;;;;5036022;28;20104;-76
2023/05/26 04:11:33;;;;;;;2.72;2.45;;;12.90;98.50;;;;;;5032889;28;20487;-78
2023/05/26 04:13:59;;;;;;;3.63;2.95;;;12.90;98.60;;;;;;5008037;28;20022;-76
2023/05/26 04:16:25;;;;;;;2.92;2.65;;;13.00;98.60;;;;;;5014947;28;20350;-76
2023/05/26 04:18:50;;;;;;;4.05;3.10;;;13.00;98.60;;;;;;5015065;28;20105;-76
2023/05/26 04:21:16;;;;;;;4.25;3.42;;;13.00;98.60;;;;;;5011285;28;20033;-75
2023/05/26 04:23:42;;;;;;;4.35;3.08;;;13.00;98.60;;;;;;4999927;28;20121;-75
2023/05/26 04:26:08;;;;;;;3.92;3.28;;;13.10;98.50;;;;;;4995250;28;20076;-75
2023/05/26 04:28:34;;;;;;;5.18;3.72;;;13.10;98.40;;;;;;5031445;28;20033;-74
2023/05/26 04:31:03;;;;;;;6.68;4.05;;;13.10;98.20;;;;;;5056083;28;20025;-76
2023/05/26 04:33:29;;;;;;;5.80;4.45;;;13.10;98.20;;;;;;5040233;28;20052;-76
2023/05/26 04:35:55;;;;;;;4.78;3.25;;;13.10;98.20;;;;;;5038742;28;20026;-76
2023/05/26 04:38:21;;;;;;;4.65;4.03;;;13.10;98.30;;;;;;5044265;28;20040;-76
2023/05/26 04:40:48;;;;;;;6.30;4.68;;;13.20;98.10;;;;;;5036815;28;20358;-74
2023/05/26 04:43:14;;;;;;;7.93;4.63;;;13.20;97.90;;;;;;5028880;28;20026;-74
2023/05/26 04:45:42;;;;;;;6.10;4.47;;;13.30;97.90;;;;;;5032085;28;20026;-75
2023/05/26 04:48:08;;;;;;;5.78;4.40;;;13.30;97.60;;;;;;5037635;28;20418;-77
2023/05/26 04:50:38;;;;;;;7.40;5.15;;;13.30;97.40;;;;;;5036014;28;20053;-76
2023/05/26 04:53:05;;;;;;;5.70;4.32;;;13.30;97.20;;;;;;5035324;28;20025;-76
2023/05/26 04:55:30;;;;;;;5.70;4.88;;;13.40;97.10;;;;;;5034866;28;20076;-75
2023/05/26 04:57:56;;;;;;;6.60;4.28;;;13.40;96.90;;;;;;5035072;28;20021;-75
2023/05/26 05:00:22;;;;;;;6.82;4.93;;;13.50;96.80;;;;;;5036528;28;20053;-76
2023/05/26 05:02:47;;;;;;;5.80;4.53;;;13.60;96.60;;;;;;5014896;28;20030;-76
2023/05/26 05:05:13;;;;;;;7.15;5.43;;;13.60;96.50;;;;;;5023929;28;20490;-76
2023/05/26 05:07:39;;;;;;;6.45;4.30;;;13.80;96.50;;;;;;5004829;28;20551;-76
2023/05/26 05:10:05;;;;;;;7.75;4.57;;;14.90;95.80;;;;;;5020584;28;20018;-76
2023/05/26 05:12:31;;;;;;;4.85;4.10;;;16.50;92.60;;;;;;5013546;28;20435;-76
2023/05/26 05:14:57;;;;;;;5.43;3.70;;;17.70;90.60;;;;;;5013403;28;20017;-76
2023/05/26 05:17:22;;;;;;;4.60;3.45;;;19.00;86.00;;;;;;5015021;28;20084;-74
2023/05/26 05:19:48;;;;;;;4.20;3.10;;;20.00;79.70;;;;;;5018562;28;20645;-74
2023/05/26 05:22:14;;;;;;;3.65;3.00;;;21.00;75.30;;;;;;5049300;28;20056;-75
2023/05/26 05:24:40;;;;;;;4.25;3.60;;;21.70;70.80;;;;;;5036402;28;20104;-75
2023/05/26 05:27:06;;;;;;;3.35;3.00;;;22.00;67.40;;;;;;5020414;28;20030;-76
2023/05/26 05:29:32;;;;;;;3.65;3.35;;;21.70;66.10;;;;;;5038581;28;20056;-75
2023/05/26 05:31:57;;;;;;;4.15;3.22;;;21.60;65.90;;;;;;5039660;28;20057;-75
2023/05/26 05:34:23;;;;;;;3.33;2.70;;;21.80;66.30;;;;;;5037037;28;20025;-75
2023/05/26 05:36:49;;;;;;;2.42;2.22;;;22.80;65.30;;;;;;5022469;28;20030;-76
2023/05/26 05:39:14;;;;;;;3.28;2.50;;;23.50;62.00;;;;;;5038744;28;20033;-76
2023/05/26 05:41:40;;;;;;;2.65;2.45;;;24.00;60.10;;;;;;5035449;28;20083;-76
2023/05/26 05:44:06;;;;;;;3.72;3.22;;;24.50;58.90;;;;;;5014767;28;20443;-76
2023/05/26 05:46:31;;;;;;;3.30;3.00;;;24.70;57.10;;;;;;5019331;28;20136;-76
2023/05/26 05:48:57;;;;;;;2.95;2.65;;;24.80;56.80;;;;;;5018649;28;20026;-75
2023/05/26 05:51:23;;;;;;;2.63;2.28;;;25.10;56.10;;;;;;5017743;28;20060;-77
2023/05/26 05:53:49;;;;;;;2.60;2.40;;;25.40;55.80;;;;;;5020664;28;20030;-75
2023/05/26 05:56:14;;;;;;;2.35;2.15;;;25.80;55.00;;;;;;4996508;28;20030;-76
2023/05/26 05:58:40;;;;;;;2.20;2.00;;;26.20;54.30;;;;;;4998028;28;20033;-76
2023/05/26 06:01:07;;;;;;;2.20;2.10;;;26.90;53.90;;;;;;4998102;28;20102;-75
2023/05/26 06:03:32;;;;;;;2.28;2.17;;;27.70;53.00;;;;;;5023031;28;20037;-75
2023/05/26 06:05:58;;;;;;;2.75;2.55;;;27.90;50.20;;;;;;5017478;28;20030;-76
2023/05/26 06:08:24;;;;;;;2.38;2.17;;;27.60;50.50;;;;;;5008569;28;20030;-76
2023/05/26 06:10:49;;;;;;;2.67;2.47;;;27.70;50.50;;;;;;5018891;28;20418;-76
2023/05/26 06:13:15;;;;;;;3.22;2.65;;;28.00;50.60;;;;;;5019204;28;20034;-75
2023/05/26 06:15:41;;;;;;;2.55;2.35;;;28.20;49.20;;;;;;5016357;28;20101;-75
2023/05/26 06:18:06;;;;;;;2.70;2.50;;;28.00;49.00;;;;;;5017025;28;20475;-76
2023/05/26 06:20:32;;;;;;;3.35;3.05;;;27.80;50.20;;;;;;5017866;28;20053;-76
2023/05/26 06:22:57;;;;;;;3.67;3.25;;;27.90;49.70;;;;;;5017115;28;20606;-76
2023/05/26 06:25:23;;;;;;;4.70;3.38;;;27.80;49.50;;;;;;5016967;28;20501;-76
2023/05/26 06:27:49;;;;;;;3.80;3.45;;;27.50;50.20;;;;;;5017660;28;20483;-76
2023/05/26 06:30:15;;;;;;;3.13;2.80;;;27.30;51.00;;;;;;5011186;28;20061;-76
2023/05/26 06:32:41;;;;;;;3.03;2.75;;;27.90;50.40;;;;;;5023278;28;20023;-74
2023/05/26 06:35:12;;;;;;;2.60;2.40;;;28.40;49.30;;;;;;5030500;28;20037;-74
2023/05/26 06:37:38;;;;;;;3.92;3.53;;;28.30;48.90;;;;;;5014048;28;20725;-76
2023/05/26 06:40:04;;;;;;;3.70;3.20;;;28.20;49.00;;;;;;5016414;28;20093;-75
2023/05/26 06:42:30;;;;;;;4.00;3.53;;;28.00;49.10;;;;;;5017314;28;20514;-76
2023/05/26 06:44:55;;;;;;;3.10;2.90;;;27.80;49.80;;;;;;5017152;28;20030;-76
2023/05/26 06:47:23;;;;;;;3.85;3.45;;;27.70;49.90;;;;;;5013964;28;20129;-76
2023/05/26 06:49:49;;;;;;;5.00;3.97;;;27.90;50.10;;;;;;5016967;28;20045;-75
2023/05/26 06:52:16;;;;;;;6.18;5.10;;;28.00;49.80;;;;;;5016570;28;20022;-75
2023/05/26 06:54:42;;;;;;;3.83;3.25;;;27.60;50.20;;;;;;5016365;28;20057;-76
2023/05/26 06:57:07;;;;;;;3.60;3.30;;;27.50;50.80;;;;;;5016531;28;20454;-76
2023/05/26 06:59:33;;;;;;;5.20;3.75;;;27.90;50.70;;;;;;5016993;28;20033;-74
2023/05/26 07:01:59;;;;;;;4.05;3.10;;;28.00;50.60;;;;;;5016211;28;20045;-75
2023/05/26 07:04:24;;;;;;;3.00;2.80;;;27.80;50.60;;;;;;5016476;28;20061;-75
2023/05/26 07:06:50;;;;;;;4.10;3.70;;;27.70;50.60;;;;;;5008931;28;20564;-75
2023/05/26 07:09:16;;;;;;;3.97;3.50;;;27.60;50.80;;;;;;5014491;28;20375;-75
2023/05/26 07:11:42;;;;;;;3.20;3.00;;;26.40;51.50;;;;;;5014223;28;20096;-75
2023/05/26 07:14:07;;;;;;;3.78;2.97;;;24.80;54.00;;;;;;5015101;28;20109;-74
2023/05/26 07:16:33;;;;;;;2.72;2.50;;;23.40;57.20;;;;;;5016892;28;20013;-75
2023/05/26 07:18:59;;;;;;;3.30;2.78;;;22.40;59.90;;;;;;5015780;28;20467;-76
2023/05/26 07:21:27;;;;;;;3.67;3.38;;;21.60;62.70;;;;;;5012671;28;20017;-74
2023/05/26 07:23:53;;;;;;;5.22;3.75;;;21.00;64.90;;;;;;5003027;28;20022;-75
2023/05/26 07:26:19;;;;;;;5.78;4.45;;;20.50;66.90;;;;;;5012248;28;20041;-75
2023/05/26 07:28:46;;;;;;;5.03;4.15;;;20.20;68.30;;;;;;5009354;28;20026;-76
2023/05/26 07:31:12;;;;;;;3.83;3.33;;;20.00;69.70;;;;;;5024440;28;20022;-77
2023/05/26 07:33:37;;;;;;;4.60;3.78;;;19.70;70.70;;;;;;5036550;28;20036;-76
2023/05/26 07:36:03;;;;;;;4.22;3.83;;;19.60;72.10;;;;;;5036597;28;20348;-74
2023/05/26 07:38:29;;;;;;;4.43;3.60;;;19.50;73.00;;;;;;5031352;28;20439;-75
2023/05/26 07:40:55;;;;;;;4.07;3.55;;;19.50;73.60;;;;;;5015372;28;20104;-75
2023/05/26 07:43:20;;;;;;;4.00;3.70;;;19.50;73.70;;;;;;5015740;28;20030;-75
2023/05/26 07:45:46;;;;;;;6.90;5.57;;;19.50;73.70;;;;;;5030241;28;20100;-74
2023/05/26 07:48:14;;;;;;;7.25;5.00;;;19.40;74.30;;;;;;5036961;28;20510;-74
2023/05/26 07:50:40;;;;;;;4.70;4.07;;;19.40;75.40;;;;;;5015800;28;20256;-75
2023/05/26 07:53:06;;;;;;;4.18;3.88;;;19.40;75.80;;;;;;5014706;28;20098;-75
2023/05/26 07:55:32;;;;;;;4.15;3.70;;;19.50;75.70;;;;;;5016624;28;20060;-76
2023/05/26 07:57:57;;;;;;;5.88;4.35;;;19.60;75.60;;;;;;5016167;28;20042;-76
2023/05/26 08:00:23;;;;;;;4.88;4.35;;;19.70;75.60;;;;;;5016357;28;20010;-77
2023/05/26 08:02:49;;;;;;;4.80;4.30;;;19.70;75.60;;;;;;5016922;28;20402;-76
2023/05/26 08:05:15;;;;;;;5.25;4.75;;;19.80;75.60;;;;;;5030296;28;20041;-73
2023/05/26 08:07:40;;;;;;;5.47;4.90;;;19.80;75.40;;;;;;5015762;28;20021;-75
2023/05/26 08:10:06;;;;;;;7.25;4.97;;;19.90;75.60;;;;;;5015863;28;20044;-75
2023/05/26 08:12:32;;;;;;;6.65;5.03;;;19.90;75.90;;;;;;5015558;28;20022;-76
2023/05/26 08:14:58;;;;;;;7.22;4.75;;;19.90;75.70;;;;;;5014497;28;20499;-75
2023/05/26 08:17:24;;;;;;;7.50;5.25;;;20.00;76.00;;;;;;5018102;28;20120;-76
2023/05/26 08:19:49;;;;;;;5.72;5.20;;;20.10;75.30;;;;;;5014884;28;20057;-76
2023/05/26 08:22:15;;;;;;;6.50;4.93;;;20.30;75.10;;;;;;5015289;28;20108;-76
2023/05/26 08:24:41;;;;;;;6.57;5.97;;;20.40;74.90;;;;;;5014929;28;20078;-76
2023/05/26 08:27:08;;;;;;;6.07;5.45;;;20.50;74.20;;;;;;5015050;28;20126;-76
2023/05/26 08:29:33;;;;;;;7.13;5.65;;;20.50;73.70;;;;;;5014650;28;20025;-75
2023/05/26 08:31:59;;;;;;;5.43;4.90;;;20.60;74.30;;;;;;5018081;28;20044;-74
2023/05/26 08:34:25;;;;;;;6.00;5.32;;;20.70;73.50;;;;;;5020198;28;20116;-75
2023/05/26 08:36:50;;;;;;;5.97;5.18;;;20.70;73.10;;;;;;5028655;28;20048;-74
2023/05/26 08:39:16;;;;;;;5.65;4.15;;;20.80;72.60;;;;;;5017023;28;20422;-74
2023/05/26 08:41:55;;;;;;;5.35;4.80;;;21.00;72.20;;;;;;5014267;28;20557;-76
2023/05/26 08:44:21;;;;;;;7.63;5.65;;;21.00;71.50;;;;;;4990660;28;20030;-75
2023/05/26 08:46:55;;;;;;;5.53;4.53;;;21.00;71.70;;;;;;5013532;28;20053;-76
2023/05/26 08:49:22;;;;;;;6.68;4.72;;;21.10;70.80;;;;;;5005101;28;20379;-75
2023/05/26 08:52:09;;;;;;;5.82;4.38;;;21.10;70.10;;;;;;5015776;28;20454;-75
2023/05/26 08:54:35;;;;;;;5.53;4.15;;;21.20;70.00;;;;;;5007555;28;20447;-74
2023/05/26 08:57:03;;;;;;;5.10;4.57;;;21.40;69.80;;;;;;5014543;28;20018;-75
2023/05/26 08:59:29;;;;;;;4.40;4.00;;;21.60;68.70;;;;;;5014909;28;20037;-75
2023/05/26 09:01:58;;;;;;;4.15;3.67;;;21.80;68.60;;;;;;5018379;28;20033;-74
2023/05/26 09:04:25;;;;;;;4.90;4.25;;;22.00;68.40;;;;;;4999870;28;20064;-75
2023/05/26 09:06:51;;;;;;;4.80;4.28;;;22.20;67.60;;;;;;5020764;28;20036;-75
2023/05/26 09:09:18;;;;;;;10.07;6.78;;;22.30;67.70;;;;;;5038524;28;20025;-75
2023/05/26 09:11:44;;;;;;;7.18;5.90;;;22.30;67.10;;;;;;5034934;28;20096;-76
2023/05/26 09:14:16;;;;;;;8.50;5.68;;;22.40;67.60;;;;;;5017388;28;20030;-75
2023/05/26 09:16:41;;;;;;;7.72;5.55;;;22.40;67.20;;;;;;5018415;28;20052;-76
2023/05/26 09:19:18;;;;;;;6.95;5.55;;;22.50;67.20;;;;;;5018704;28;20443;-74
2023/05/26 09:21:48;;;;;;;6.95;5.38;;;22.60;66.90;;;;;;5028813;28;20022;-75
2023/05/26 09:24:16;;;;;;;6.18;5.45;;;22.80;66.50;;;;;;5059639;23;20574;-79
2023/05/26 09:26:44;;;;;;;7.05;5.88;;;22.80;66.20;;;;;;5063435;28;20072;-80
2023/05/26 09:29:10;;;;;;;6.78;5.47;;;22.80;65.40;;;;;;5028325;28;20389;-80
2023/05/26 09:31:44;;;;;;;6.43;5.55;;;22.90;65.60;;;;;;5068108;28;20025;-80
2023/05/26 09:34:11;;;;;;;9.27;6.28;;;23.00;65.00;;;;;;5048100;28;20103;-80
2023/05/26 09:36:38;;;;;;;9.48;6.55;;;23.10;63.90;;;;;;5042215;28;20424;-79
2023/05/26 09:39:06;;;;;;;7.38;5.90;;;23.00;64.10;;;;;;5058601;28;20412;-79
2023/05/26 09:41:42;;;;;;;7.90;5.90;;;22.90;64.80;;;;;;5063184;28;20025;-79
2023/05/26 09:44:17;;;;;;;8.25;5.78;;;22.80;64.50;;;;;;5054970;28;20030;-79
2023/05/26 09:46:45;;;;;;;5.95;4.85;;;22.60;65.10;;;;;;5039140;28;20037;-80
2023/05/26 09:49:15;;;;;;;10.13;5.75;;;22.80;65.30;;;;;;5044498;28;20033;-80
2023/05/26 09:51:48;;;;;;;9.02;6.00;;;23.20;63.90;;;;;;5060628;28;20086;-80
2023/05/26 09:54:14;;;;;;;6.28;4.93;;;23.20;63.80;;;;;;5042003;28;20036;-81
2023/05/26 09:57:01;;;;;;;8.05;5.00;;;23.10;63.30;;;;;;5059860;28;20017;-80
2023/05/26 09:59:36;;;;;;;11.60;6.20;;;22.90;63.70;;;;;;5061867;28;20013;-81
2023/05/26 10:02:15;;;;;;;7.88;4.95;;;22.90;63.80;;;;;;5041373;28;20042;-80
2023/05/26 10:04:42;;;;;;;8.88;6.55;;;22.90;63.90;;;;;;5042569;28;20025;-79
2023/05/26 10:07:09;;;;;;;8.82;6.00;;;22.90;64.20;;;;;;5059810;28;20053;-81
2023/05/26 10:09:37;;;;;;;8.35;6.07;;;23.20;64.20;;;;;;5042416;28;20127;-80
2023/05/26 10:12:06;;;;;;;10.30;6.50;;;23.60;62.90;;;;;;5060702;28;20025;-80
2023/05/26 10:14:34;;;;;;;12.55;7.30;;;23.70;61.30;;;;;;5059054;28;20036;-79
2023/05/26 10:17:01;;;;;;;8.57;5.47;;;23.60;60.70;;;;;;5058968;28;20040;-79
2023/05/26 10:19:27;;;;;;;6.88;4.72;;;23.60;60.80;;;;;;5060350;28;20466;-80
2023/05/26 10:21:57;;;;;;;5.30;4.47;;;23.70;60.80;;;;;;5060004;28;20025;-81
2023/05/26 10:24:32;;;;;;;6.35;5.07;;;24.10;60.60;;;;;;5071944;28;20028;-80
2023/05/26 10:27:13;;;;;;;7.80;4.85;;;24.20;59.60;;;;;;5071839;28;20032;-80
2023/05/26 10:30:08;;;;;;;7.90;5.10;;;24.40;58.60;;;;;;5051409;28;20024;-79
2023/05/26 10:32:56;;;;;;;7.80;5.20;;;24.60;58.00;;;;;;5074106;28;20079;-81
2023/05/26 10:35:27;;;;;;;7.53;4.85;;;24.70;57.00;;;;;;5060598;28;20029;-79
2023/05/26 10:38:02;;;;;;;6.65;4.28;;;24.70;56.50;;;;;;5045846;28;20025;-80
2023/05/26 10:40:30;;;;;;;7.85;5.45;;;24.70;57.00;;;;;;5060008;28;20036;-80
2023/05/26 10:43:12;;;;;;;5.60;4.80;;;24.80;56.90;;;;;;5060696;28;20021;-79
2023/05/26 10:45:51;;;;;;;;;;;24.90;56.60;;;;;;5040897;28;20029;-81
2023/05/26 10:48:17;;;;;;;7.55;5.32;;;25.00;55.50;;;;;;5041932;28;19962;-80
2023/05/26 10:50:55;;;;;;;6.80;4.88;;;24.80;55.40;;;;;;5060477;28;20024;-81
2023/05/26 10:53:22;;;;;;;4.18;3.40;;;24.70;55.50;;;;;;5035289;28;20021;-79
2023/05/26 10:55:58;;;;;;;4.75;4.00;;;24.80;55.00;;;;;;5060683;28;20082;-81
2023/05/26 10:58:27;;;;;;;6.18;4.15;;;;;;;;;;5054821;28;20105;-80
2023/05/26 11:00:55;;;;;;;3.88;3.53;;;25.50;53.60;;;;;;5070775;28;20021;-81
2023/05/26 11:03:38;;;;;;;6.65;4.10;;;26.00;53.80;;;;;;5060603;28;20021;-80
2023/05/26 11:06:05;;;;;;;4.38;3.97;;;26.50;53.30;;;;;;5042439;28;20025;-81
2023/05/26 11:08:36;;;;;;;4.45;3.63;;;26.80;52.70;;;;;;5042476;28;20017;-81
2023/05/26 11:11:04;;;;;;;3.92;3.50;;;27.10;52.30;;;;;;5060147;28;20092;-81
2023/05/26 11:13:47;;;;;;;3.95;3.60;;;27.30;50.40;;;;;;5060312;28;20037;-81
2023/05/26 11:16:25;;;;;;;7.00;4.82;;;27.50;50.20;;;;;;5057422;28;20699;-81
2023/05/26 11:18:56;;;;;;;4.80;4.30;;;27.40;50.40;;;;;;5060309;28;20052;-79
2023/05/26 11:21:26;;;;;;;;;;;27.30;51.40;;;;;;5060810;28;20188;-81
2023/05/26 11:23:53;;;;;;;9.40;4.80;;;27.10;50.60;;;;;;5041241;28;19919;-81
2023/05/26 11:26:21;;;;;;;6.35;4.75;;;26.60;51.50;;;;;;5060331;28;20052;-81
2023/05/26 11:28:47;;;;;;;4.55;3.70;;;26.50;52.30;;;;;;5039705;28;20034;-81
2023/05/26 11:31:21;;;;;;;8.18;5.40;;;26.50;52.50;;;;;;5044948;28;20029;-82
2023/05/26 11:33:47;;;;;;;8.95;5.90;;;26.30;51.40;;;;;;5043153;28;20028;-80
2023/05/26 11:36:18;;;;;;;6.47;5.30;;;25.80;52.60;;;;;;5064987;28;20037;-81
2023/05/26 11:38:46;;;;;;;6.75;5.35;;;25.70;53.40;;;;;;5044625;28;20025;-79
2023/05/26 11:41:17;;;;;;;9.43;5.93;;;25.90;53.30;;;;;;5069684;28;20041;-78
2023/05/26 11:43:46;;;;;;;7.90;5.20;;;25.50;53.50;;;;;;5047673;28;20021;-79
2023/05/26 11:46:18;;;;;;;5.85;4.97;;;25.00;54.30;;;;;;5057387;28;20029;-81
2023/05/26 11:48:52;;;;;;;9.60;5.47;;;24.50;55.70;;;;;;5059773;28;20516;-79
2023/05/26 11:51:19;;;;;;;4.50;3.83;;;24.20;56.50;;;;;;5061018;28;20017;-79
2023/05/26 11:53:51;;;;;;;4.40;4.00;;;24.10;56.90;;;;;;5044841;28;20074;-79
2023/05/26 11:56:17;;;;;;;6.63;4.15;;;24.60;56.40;;;;;;5065633;28;20017;-80
2023/05/26 11:58:47;;;;;;;4.53;4.10;;;25.00;55.20;;;;;;5059803;28;20028;-80
2023/05/26 12:01:13;;;;;;;6.68;4.38;;;25.60;54.50;;;;;;5039488;28;20021;-80
2023/05/26 12:03:45;;;;;;;5.32;4.43;;;25.80;53.30;;;;;;5040344;28;20108;-80
2023/05/26 12:06:17;;;;;;;4.43;4.03;;;26.00;53.40;;;;;;5041197;28;20421;-80
2023/05/26 12:08:59;;;;;;;9.50;5.32;;;25.80;54.00;;;;;;5068396;28;20029;-81
2023/05/26 12:11:38;;;;;;;7.03;4.05;;;25.50;53.00;;;;;;5047194;28;20053;-80
2023/05/26 12:14:05;;;;;;;6.63;4.93;;;25.50;53.60;;;;;;5031188;28;20024;-81
2023/05/26 12:16:32;;;;;;;4.97;4.03;;;25.70;53.40;;;;;;5051171;28;20024;-80
2023/05/26 12:19:00;;;;;;;5.47;3.20;;;26.40;52.70;;;;;;5049937;28;20028;-80
2023/05/26 12:21:27;;;;;;;7.25;4.90;;;27.20;50.90;;;;;;5059995;28;20044;-80
2023/05/26 12:23:58;;;;;;;7.53;4.45;;;27.30;48.70;;;;;;5067693;28;20035;-80
2023/05/26 12:26:30;;;;;;;8.23;5.20;;;26.70;49.90;;;;;;5072121;28;20025;-78
2023/05/26 12:29:12;;;;;;;6.95;4.88;;;26.10;51.20;;;;;;5061283;28;20025;-80
2023/05/26 12:31:49;;;;;;;4.97;4.45;;;25.50;52.10;;;;;;5044095;28;20024;-80
2023/05/26 12:34:22;;;;;;;4.32;3.80;;;25.20;52.80;;;;;;5044391;28;20101;-80
2023/05/26 12:36:48;;;;;;;6.45;4.03;;;25.10;53.30;;;;;;5062357;28;20089;-79
2023/05/26 12:39:15;;;;;;;4.45;3.47;;;25.00;53.70;;;;;;5061927;28;20394;-79
2023/05/26 12:41:41;;;;;;;4.13;3.72;;;25.00;53.40;;;;;;5043777;28;20078;-80
2023/05/26 12:44:09;;;;;;;6.30;4.22;;;24.90;53.80;;;;;;5054370;28;20029;-81
2023/05/26 12:46:37;;;;;;;3.65;3.35;;;24.80;53.90;;;;;;5056524;28;20021;-79
2023/05/26 12:49:03;;;;;;;5.00;3.92;;;24.70;54.40;;;;;;5038717;28;20022;-80
2023/05/26 12:51:30;;;;;;;7.43;3.97;;;24.80;55.20;;;;;;5047578;28;20029;-80